sensor_id;sensor_type;location;lat;lon;timestamp;P1;durP1;ratioP1;P2;durP2;ratioP2
28483;SDS011;15704;48.834;8.736;2024-02-26T00:02:07;1.63;;;0.88;;
28483;SDS011;15704;48.834;8.736;2024-02-26T00:04:34;0.82;;;0.80;;
28483;SDS011;15704;48.834;8.736;2024-02-26T00:07:01;0.73;;;0.70;;
28483;SDS011;15704;48.834;8.736;2024-02-26T00:09:28;0.70;;;0.70;;
28483;SDS011;15704;48.834;8.736;2024-02-26T00:11:54;1.15;;;0.82;;
28483;SDS011;15704;48.834;8.736;2024-02-26T00:14:21;0.60;;;0.60;;
28483;SDS011;15704;48.834;8.736;2024-02-26T00:16:48;0.82;;;0.82;;
28483;SDS011;15704;48.834;8.736;2024-02-26T00:19:15;0.98;;;0.80;;
28483;SDS011;15704;48.834;8.736;2024-02-26T00:21:42;1.10;;;0.80;;
28483;SDS011;15704;48.834;8.736;2024-02-26T00:24:09;0.70;;;0.70;;
28483;SDS011;15704;48.834;8.736;2024-02-26T00:26:36;0.70;;;0.70;;
28483;SDS011;15704;48.834;8.736;2024-02-26T00:29:03;0.88;;;0.75;;
28483;SDS011;15704;48.834;8.736;2024-02-26T00:31:30;1.17;;;0.70;;
28483;SDS011;15704;48.834;8.736;2024-02-26T00:33:57;1.10;;;0.90;;
28483;SDS011;15704;48.834;8.736;2024-02-26T00:36:24;1.15;;;0.98;;
28483;SDS011;15704;48.834;8.736;2024-02-26T00:38:51;1.15;;;0.80;;
28483;SDS011;15704;48.834;8.736;2024-02-26T00:41:18;0.80;;;0.70;;
28483;SDS011;15704;48.834;8.736;2024-02-26T00:43:46;0.98;;;0.88;;
28483;SDS011;15704;48.834;8.736;2024-02-26T00:46:13;1.20;;;0.80;;
28483;SDS011;15704;48.834;8.736;2024-02-26T00:48:40;1.00;;;0.90;;
28483;SDS011;15704;48.834;8.736;2024-02-26T00:51:07;1.20;;;0.95;;
28483;SDS011;15704;48.834;8.736;2024-02-26T00:53:35;1.15;;;0.85;;
28483;SDS011;15704;48.834;8.736;2024-02-26T00:56:01;0.77;;;0.75;;
28483;SDS011;15704;48.834;8.736;2024-02-26T00:58:28;1.40;;;1.00;;
28483;SDS011;15704;48.834;8.736;2024-02-26T01:00:55;1.20;;;1.00;;
28483;SDS011;15704;48.834;8.736;2024-02-26T01:03:22;1.30;;;1.10;;
28483;SDS011;15704;48.834;8.736;2024-02-26T01:05:49;1.23;;;1.10;;
28483;SDS011;15704;48.834;8.736;2024-02-26T01:08:17;1.42;;;1.10;;
28483;SDS011;15704;48.834;8.736;2024-02-26T01:10:44;1.85;;;1.30;;
28483;SDS011;15704;48.834;8.736;2024-02-26T01:13:11;1.50;;;1.20;;
28483;SDS011;15704;48.834;8.736;2024-02-26T01:15:38;1.80;;;1.30;;
28483;SDS011;15704;48.834;8.736;2024-02-26T01:18:05;1.30;;;1.08;;
28483;SDS011;15704;48.834;8.736;2024-02-26T01:20:32;1.25;;;1.10;;
28483;SDS011;15704;48.834;8.736;2024-02-26T01:22:59;1.75;;;1.40;;
28483;SDS011;15704;48.834;8.736;2024-02-26T01:25:25;1.48;;;1.20;;
28483;SDS011;15704;48.834;8.736;2024-02-26T01:27:52;1.30;;;1.20;;
28483;SDS011;15704;48.834;8.736;2024-02-26T01:30:19;2.03;;;1.33;;
28483;SDS011;15704;48.834;8.736;2024-02-26T01:32:46;1.73;;;1.40;;
28483;SDS011;15704;48.834;8.736;2024-02-26T01:35:13;2.17;;;1.30;;
28483;SDS011;15704;48.834;8.736;2024-02-26T01:37:40;2.53;;;1.50;;
28483;SDS011;15704;48.834;8.736;2024-02-26T01:40:08;1.23;;;1.08;;
28483;SDS011;15704;48.834;8.736;2024-02-26T01:42:38;1.83;;;1.35;;
28483;SDS011;15704;48.834;8.736;2024-02-26T01:45:05;2.20;;;1.77;;
28483;SDS011;15704;48.834;8.736;2024-02-26T01:47:35;2.35;;;1.80;;
28483;SDS011;15704;48.834;8.736;2024-02-26T01:50:02;1.88;;;1.42;;
28483;SDS011;15704;48.834;8.736;2024-02-26T01:52:29;2.38;;;1.40;;
28483;SDS011;15704;48.834;8.736;2024-02-26T01:54:55;2.03;;;1.38;;
28483;SDS011;15704;48.834;8.736;2024-02-26T01:57:22;2.25;;;1.70;;
28483;SDS011;15704;48.834;8.736;2024-02-26T01:59:49;1.60;;;1.50;;
28483;SDS011;15704;48.834;8.736;2024-02-26T02:02:16;2.08;;;1.70;;
28483;SDS011;15704;48.834;8.736;2024-02-26T02:04:43;1.98;;;1.50;;
28483;SDS011;15704;48.834;8.736;2024-02-26T02:07:10;2.28;;;1.73;;
28483;SDS011;15704;48.834;8.736;2024-02-26T02:09:37;2.08;;;1.60;;
28483;SDS011;15704;48.834;8.736;2024-02-26T02:12:04;1.42;;;1.20;;
28483;SDS011;15704;48.834;8.736;2024-02-26T02:14:32;1.73;;;1.35;;
28483;SDS011;15704;48.834;8.736;2024-02-26T02:16:59;1.80;;;1.50;;
28483;SDS011;15704;48.834;8.736;2024-02-26T02:19:25;1.98;;;1.58;;
28483;SDS011;15704;48.834;8.736;2024-02-26T02:21:52;2.10;;;1.80;;
28483;SDS011;15704;48.834;8.736;2024-02-26T02:24:19;2.47;;;1.92;;
28483;SDS011;15704;48.834;8.736;2024-02-26T02:26:46;1.92;;;1.50;;
28483;SDS011;15704;48.834;8.736;2024-02-26T02:29:13;2.05;;;1.65;;
28483;SDS011;15704;48.834;8.736;2024-02-26T02:31:41;1.98;;;1.33;;
28483;SDS011;15704;48.834;8.736;2024-02-26T02:34:08;2.10;;;1.60;;
28483;SDS011;15704;48.834;8.736;2024-02-26T02:36:47;1.83;;;1.42;;
28483;SDS011;15704;48.834;8.736;2024-02-26T02:39:15;1.70;;;1.50;;
28483;SDS011;15704;48.834;8.736;2024-02-26T02:41:42;2.22;;;1.90;;
28483;SDS011;15704;48.834;8.736;2024-02-26T02:44:09;2.40;;;1.75;;
28483;SDS011;15704;48.834;8.736;2024-02-26T02:46:36;2.38;;;1.58;;
28483;SDS011;15704;48.834;8.736;2024-02-26T02:49:03;2.08;;;1.48;;
28483;SDS011;15704;48.834;8.736;2024-02-26T02:51:30;2.38;;;1.65;;
28483;SDS011;15704;48.834;8.736;2024-02-26T02:53:56;1.55;;;1.25;;
28483;SDS011;15704;48.834;8.736;2024-02-26T02:56:23;2.00;;;1.45;;
28483;SDS011;15704;48.834;8.736;2024-02-26T02:58:50;2.63;;;1.90;;
28483;SDS011;15704;48.834;8.736;2024-02-26T03:01:17;1.52;;;1.40;;
28483;SDS011;15704;48.834;8.736;2024-02-26T03:03:43;1.50;;;1.27;;
28483;SDS011;15704;48.834;8.736;2024-02-26T03:06:11;2.20;;;1.38;;
28483;SDS011;15704;48.834;8.736;2024-02-26T03:08:38;2.03;;;1.50;;
28483;SDS011;15704;48.834;8.736;2024-02-26T03:11:05;1.67;;;1.40;;
28483;SDS011;15704;48.834;8.736;2024-02-26T03:13:32;1.60;;;1.40;;
28483;SDS011;15704;48.834;8.736;2024-02-26T03:16:04;1.40;;;1.30;;
28483;SDS011;15704;48.834;8.736;2024-02-26T03:18:32;1.90;;;1.40;;
28483;SDS011;15704;48.834;8.736;2024-02-26T03:20:59;1.40;;;1.30;;
28483;SDS011;15704;48.834;8.736;2024-02-26T03:23:26;2.28;;;1.40;;
28483;SDS011;15704;48.834;8.736;2024-02-26T03:25:52;1.40;;;1.10;;
28483;SDS011;15704;48.834;8.736;2024-02-26T03:28:19;1.48;;;1.33;;
28483;SDS011;15704;48.834;8.736;2024-02-26T03:30:46;1.70;;;1.30;;
28483;SDS011;15704;48.834;8.736;2024-02-26T03:33:13;1.77;;;1.42;;
28483;SDS011;15704;48.834;8.736;2024-02-26T03:35:40;1.23;;;1.13;;
28483;SDS011;15704;48.834;8.736;2024-02-26T03:38:07;1.85;;;1.50;;
28483;SDS011;15704;48.834;8.736;2024-02-26T03:40:33;1.38;;;1.25;;
28483;SDS011;15704;48.834;8.736;2024-02-26T03:43:00;1.20;;;1.10;;
28483;SDS011;15704;48.834;8.736;2024-02-26T03:45:28;1.60;;;1.38;;
28483;SDS011;15704;48.834;8.736;2024-02-26T03:47:55;1.35;;;1.20;;
28483;SDS011;15704;48.834;8.736;2024-02-26T03:50:22;2.05;;;1.38;;
28483;SDS011;15704;48.834;8.736;2024-02-26T03:52:50;1.23;;;1.10;;
28483;SDS011;15704;48.834;8.736;2024-02-26T03:55:16;1.63;;;1.20;;
28483;SDS011;15704;48.834;8.736;2024-02-26T03:57:47;1.23;;;1.13;;
28483;SDS011;15704;48.834;8.736;2024-02-26T04:00:14;1.52;;;1.20;;
28483;SDS011;15704;48.834;8.736;2024-02-26T04:02:41;3.13;;;1.35;;
28483;SDS011;15704;48.834;8.736;2024-02-26T04:05:11;1.02;;;0.93;;
28483;SDS011;15704;48.834;8.736;2024-02-26T04:07:39;1.55;;;1.40;;
28483;SDS011;15704;48.834;8.736;2024-02-26T04:10:10;1.10;;;1.00;;
28483;SDS011;15704;48.834;8.736;2024-02-26T04:12:40;1.63;;;1.13;;
28483;SDS011;15704;48.834;8.736;2024-02-26T04:15:08;1.30;;;1.20;;
28483;SDS011;15704;48.834;8.736;2024-02-26T04:17:36;1.23;;;1.10;;
28483;SDS011;15704;48.834;8.736;2024-02-26T04:20:03;1.80;;;1.30;;
28483;SDS011;15704;48.834;8.736;2024-02-26T04:22:33;2.10;;;1.48;;
28483;SDS011;15704;48.834;8.736;2024-02-26T04:25:00;2.05;;;1.55;;
28483;SDS011;15704;48.834;8.736;2024-02-26T04:27:27;1.50;;;1.20;;
28483;SDS011;15704;48.834;8.736;2024-02-26T04:29:54;1.92;;;1.15;;
28483;SDS011;15704;48.834;8.736;2024-02-26T04:32:21;1.55;;;1.20;;
28483;SDS011;15704;48.834;8.736;2024-02-26T04:34:48;1.67;;;1.25;;
28483;SDS011;15704;48.834;8.736;2024-02-26T04:37:15;1.95;;;1.20;;
28483;SDS011;15704;48.834;8.736;2024-02-26T04:39:41;1.35;;;1.17;;
28483;SDS011;15704;48.834;8.736;2024-02-26T04:42:08;2.05;;;1.40;;
28483;SDS011;15704;48.834;8.736;2024-02-26T04:44:35;1.88;;;1.40;;
28483;SDS011;15704;48.834;8.736;2024-02-26T04:47:02;1.45;;;1.25;;
28483;SDS011;15704;48.834;8.736;2024-02-26T04:49:29;1.27;;;1.00;;
28483;SDS011;15704;48.834;8.736;2024-02-26T04:51:58;1.35;;;1.20;;
28483;SDS011;15704;48.834;8.736;2024-02-26T04:54:25;1.20;;;0.95;;
28483;SDS011;15704;48.834;8.736;2024-02-26T04:56:51;1.38;;;1.00;;
28483;SDS011;15704;48.834;8.736;2024-02-26T04:59:18;1.63;;;1.15;;
28483;SDS011;15704;48.834;8.736;2024-02-26T05:01:45;1.88;;;1.17;;
28483;SDS011;15704;48.834;8.736;2024-02-26T05:04:12;1.85;;;1.48;;
28483;SDS011;15704;48.834;8.736;2024-02-26T05:06:39;1.83;;;1.35;;
28483;SDS011;15704;48.834;8.736;2024-02-26T05:09:06;1.77;;;1.40;;
28483;SDS011;15704;48.834;8.736;2024-02-26T05:11:33;1.33;;;1.20;;
28483;SDS011;15704;48.834;8.736;2024-02-26T05:14:01;1.08;;;0.98;;
28483;SDS011;15704;48.834;8.736;2024-02-26T05:16:28;1.27;;;1.05;;
28483;SDS011;15704;48.834;8.736;2024-02-26T05:18:57;1.38;;;1.10;;
28483;SDS011;15704;48.834;8.736;2024-02-26T05:21:24;1.55;;;1.17;;
28483;SDS011;15704;48.834;8.736;2024-02-26T05:23:51;1.38;;;1.25;;
28483;SDS011;15704;48.834;8.736;2024-02-26T05:26:19;1.67;;;1.20;;
28483;SDS011;15704;48.834;8.736;2024-02-26T05:28:47;1.50;;;1.15;;
28483;SDS011;15704;48.834;8.736;2024-02-26T05:31:14;1.20;;;1.05;;
28483;SDS011;15704;48.834;8.736;2024-02-26T05:33:42;1.60;;;1.15;;
28483;SDS011;15704;48.834;8.736;2024-02-26T05:36:09;1.08;;;0.98;;
28483;SDS011;15704;48.834;8.736;2024-02-26T05:38:36;1.00;;;0.90;;
28483;SDS011;15704;48.834;8.736;2024-02-26T05:41:03;1.20;;;1.10;;
28483;SDS011;15704;48.834;8.736;2024-02-26T05:43:31;1.40;;;1.10;;
28483;SDS011;15704;48.834;8.736;2024-02-26T05:45:58;1.23;;;1.00;;
28483;SDS011;15704;48.834;8.736;2024-02-26T05:48:24;1.27;;;0.85;;
28483;SDS011;15704;48.834;8.736;2024-02-26T05:50:52;1.05;;;0.90;;
28483;SDS011;15704;48.834;8.736;2024-02-26T05:53:18;1.33;;;1.17;;
28483;SDS011;15704;48.834;8.736;2024-02-26T05:55:45;1.00;;;0.80;;
28483;SDS011;15704;48.834;8.736;2024-02-26T05:58:12;1.13;;;0.90;;
28483;SDS011;15704;48.834;8.736;2024-02-26T06:00:40;1.13;;;0.90;;
28483;SDS011;15704;48.834;8.736;2024-02-26T06:03:07;1.17;;;1.02;;
28483;SDS011;15704;48.834;8.736;2024-02-26T06:05:34;1.25;;;1.00;;
28483;SDS011;15704;48.834;8.736;2024-02-26T06:08:01;1.33;;;1.02;;
28483;SDS011;15704;48.834;8.736;2024-02-26T06:10:29;0.90;;;0.88;;
28483;SDS011;15704;48.834;8.736;2024-02-26T06:12:55;0.70;;;0.70;;
28483;SDS011;15704;48.834;8.736;2024-02-26T06:15:22;1.17;;;1.02;;
28483;SDS011;15704;48.834;8.736;2024-02-26T06:17:49;0.95;;;0.82;;
28483;SDS011;15704;48.834;8.736;2024-02-26T06:20:16;0.88;;;0.60;;
28483;SDS011;15704;48.834;8.736;2024-02-26T06:22:43;1.13;;;0.93;;
28483;SDS011;15704;48.834;8.736;2024-02-26T06:25:11;1.08;;;0.88;;
28483;SDS011;15704;48.834;8.736;2024-02-26T06:27:38;1.13;;;0.90;;
28483;SDS011;15704;48.834;8.736;2024-02-26T06:30:05;0.88;;;0.70;;
28483;SDS011;15704;48.834;8.736;2024-02-26T06:32:32;0.82;;;0.77;;
28483;SDS011;15704;48.834;8.736;2024-02-26T06:34:59;1.55;;;0.85;;
28483;SDS011;15704;48.834;8.736;2024-02-26T06:37:26;1.23;;;1.00;;
28483;SDS011;15704;48.834;8.736;2024-02-26T06:39:53;0.90;;;0.80;;
28483;SDS011;15704;48.834;8.736;2024-02-26T06:42:19;0.93;;;0.77;;
28483;SDS011;15704;48.834;8.736;2024-02-26T06:44:46;1.05;;;0.80;;
28483;SDS011;15704;48.834;8.736;2024-02-26T06:47:13;1.10;;;0.90;;
28483;SDS011;15704;48.834;8.736;2024-02-26T06:49:40;0.85;;;0.82;;
28483;SDS011;15704;48.834;8.736;2024-02-26T06:52:07;1.40;;;0.98;;
28483;SDS011;15704;48.834;8.736;2024-02-26T06:54:33;1.10;;;1.00;;
28483;SDS011;15704;48.834;8.736;2024-02-26T06:57:00;1.05;;;0.90;;
28483;SDS011;15704;48.834;8.736;2024-02-26T06:59:27;0.80;;;0.70;;
28483;SDS011;15704;48.834;8.736;2024-02-26T07:01:54;0.65;;;0.65;;
28483;SDS011;15704;48.834;8.736;2024-02-26T07:04:21;0.90;;;0.77;;
28483;SDS011;15704;48.834;8.736;2024-02-26T07:06:48;0.88;;;0.80;;
28483;SDS011;15704;48.834;8.736;2024-02-26T07:09:15;0.80;;;0.80;;
28483;SDS011;15704;48.834;8.736;2024-02-26T07:11:42;1.17;;;1.00;;
28483;SDS011;15704;48.834;8.736;2024-02-26T07:14:10;0.85;;;0.82;;
28483;SDS011;15704;48.834;8.736;2024-02-26T07:16:38;0.60;;;0.60;;
28483;SDS011;15704;48.834;8.736;2024-02-26T07:19:05;1.27;;;1.00;;
28483;SDS011;15704;48.834;8.736;2024-02-26T07:21:32;1.08;;;0.80;;
28483;SDS011;15704;48.834;8.736;2024-02-26T07:23:58;1.27;;;0.80;;
28483;SDS011;15704;48.834;8.736;2024-02-26T07:26:25;0.70;;;0.70;;
28483;SDS011;15704;48.834;8.736;2024-02-26T07:28:52;0.88;;;0.80;;
28483;SDS011;15704;48.834;8.736;2024-02-26T07:31:19;1.13;;;0.80;;
28483;SDS011;15704;48.834;8.736;2024-02-26T07:33:46;0.70;;;0.70;;
28483;SDS011;15704;48.834;8.736;2024-02-26T07:36:13;0.70;;;0.70;;
28483;SDS011;15704;48.834;8.736;2024-02-26T07:38:40;0.80;;;0.80;;
28483;SDS011;15704;48.834;8.736;2024-02-26T07:41:09;0.73;;;0.73;;
28483;SDS011;15704;48.834;8.736;2024-02-26T07:43:36;1.20;;;0.80;;
28483;SDS011;15704;48.834;8.736;2024-02-26T07:46:03;1.05;;;0.90;;
28483;SDS011;15704;48.834;8.736;2024-02-26T07:48:30;1.10;;;0.85;;
28483;SDS011;15704;48.834;8.736;2024-02-26T07:50:57;0.60;;;0.60;;
28483;SDS011;15704;48.834;8.736;2024-02-26T07:53:26;0.80;;;0.80;;
28483;SDS011;15704;48.834;8.736;2024-02-26T07:55:53;0.68;;;0.68;;
28483;SDS011;15704;48.834;8.736;2024-02-26T07:58:20;1.10;;;0.75;;
28483;SDS011;15704;48.834;8.736;2024-02-26T08:00:46;0.70;;;0.70;;
28483;SDS011;15704;48.834;8.736;2024-02-26T08:03:13;1.23;;;0.90;;
28483;SDS011;15704;48.834;8.736;2024-02-26T08:05:42;0.70;;;0.70;;
28483;SDS011;15704;48.834;8.736;2024-02-26T08:08:09;1.13;;;0.70;;
28483;SDS011;15704;48.834;8.736;2024-02-26T08:10:36;0.98;;;0.88;;
28483;SDS011;15704;48.834;8.736;2024-02-26T08:13:03;0.80;;;0.80;;
28483;SDS011;15704;48.834;8.736;2024-02-26T08:15:33;0.80;;;0.80;;
28483;SDS011;15704;48.834;8.736;2024-02-26T08:18:01;0.73;;;0.70;;
28483;SDS011;15704;48.834;8.736;2024-02-26T08:20:30;0.63;;;0.60;;
28483;SDS011;15704;48.834;8.736;2024-02-26T08:22:58;0.70;;;0.70;;
28483;SDS011;15704;48.834;8.736;2024-02-26T08:25:24;0.70;;;0.70;;
28483;SDS011;15704;48.834;8.736;2024-02-26T08:27:52;0.70;;;0.70;;
28483;SDS011;15704;48.834;8.736;2024-02-26T08:30:19;0.45;;;0.45;;
28483;SDS011;15704;48.834;8.736;2024-02-26T08:32:47;0.88;;;0.77;;
28483;SDS011;15704;48.834;8.736;2024-02-26T08:35:18;0.70;;;0.70;;
28483;SDS011;15704;48.834;8.736;2024-02-26T08:37:45;0.85;;;0.85;;
28483;SDS011;15704;48.834;8.736;2024-02-26T08:40:13;0.90;;;0.68;;
28483;SDS011;15704;48.834;8.736;2024-02-26T08:42:42;1.00;;;0.90;;
28483;SDS011;15704;48.834;8.736;2024-02-26T08:45:09;0.70;;;0.70;;
28483;SDS011;15704;48.834;8.736;2024-02-26T08:47:36;1.02;;;0.90;;
28483;SDS011;15704;48.834;8.736;2024-02-26T08:50:03;1.25;;;0.95;;
28483;SDS011;15704;48.834;8.736;2024-02-26T08:52:31;1.25;;;0.98;;
28483;SDS011;15704;48.834;8.736;2024-02-26T08:54:58;0.85;;;0.73;;
28483;SDS011;15704;48.834;8.736;2024-02-26T08:57:24;0.70;;;0.70;;
28483;SDS011;15704;48.834;8.736;2024-02-26T08:59:54;0.90;;;0.88;;
28483;SDS011;15704;48.834;8.736;2024-02-26T09:02:20;0.80;;;0.80;;
28483;SDS011;15704;48.834;8.736;2024-02-26T09:04:47;1.50;;;0.73;;
28483;SDS011;15704;48.834;8.736;2024-02-26T09:07:14;1.30;;;0.70;;
28483;SDS011;15704;48.834;8.736;2024-02-26T09:09:41;0.90;;;0.73;;
28483;SDS011;15704;48.834;8.736;2024-02-26T09:12:08;0.60;;;0.60;;
28483;SDS011;15704;48.834;8.736;2024-02-26T09:14:35;0.63;;;0.60;;
28483;SDS011;15704;48.834;8.736;2024-02-26T09:17:02;0.60;;;0.60;;
28483;SDS011;15704;48.834;8.736;2024-02-26T09:19:29;0.52;;;0.52;;
28483;SDS011;15704;48.834;8.736;2024-02-26T09:21:57;1.00;;;0.70;;
28483;SDS011;15704;48.834;8.736;2024-02-26T09:24:24;0.50;;;0.50;;
28483;SDS011;15704;48.834;8.736;2024-02-26T09:26:52;0.82;;;0.63;;
28483;SDS011;15704;48.834;8.736;2024-02-26T09:29:19;0.70;;;0.57;;
28483;SDS011;15704;48.834;8.736;2024-02-26T09:31:46;0.70;;;0.60;;
28483;SDS011;15704;48.834;8.736;2024-02-26T09:34:15;0.85;;;0.60;;
28483;SDS011;15704;48.834;8.736;2024-02-26T09:36:43;0.55;;;0.55;;
28483;SDS011;15704;48.834;8.736;2024-02-26T09:39:10;0.50;;;0.50;;
28483;SDS011;15704;48.834;8.736;2024-02-26T09:41:38;0.77;;;0.73;;
28483;SDS011;15704;48.834;8.736;2024-02-26T09:44:05;0.98;;;0.77;;
28483;SDS011;15704;48.834;8.736;2024-02-26T09:46:33;0.70;;;0.70;;
28483;SDS011;15704;48.834;8.736;2024-02-26T09:49:00;0.65;;;0.65;;
28483;SDS011;15704;48.834;8.736;2024-02-26T09:51:28;1.08;;;0.70;;
28483;SDS011;15704;48.834;8.736;2024-02-26T09:53:55;0.68;;;0.63;;
28483;SDS011;15704;48.834;8.736;2024-02-26T09:56:25;0.75;;;0.73;;
28483;SDS011;15704;48.834;8.736;2024-02-26T09:58:53;0.50;;;0.50;;
28483;SDS011;15704;48.834;8.736;2024-02-26T10:01:22;0.60;;;0.60;;
28483;SDS011;15704;48.834;8.736;2024-02-26T10:03:57;0.50;;;0.50;;
28483;SDS011;15704;48.834;8.736;2024-02-26T10:06:26;0.95;;;0.57;;
28483;SDS011;15704;48.834;8.736;2024-02-26T10:08:57;0.70;;;0.70;;
28483;SDS011;15704;48.834;8.736;2024-02-26T10:11:26;0.80;;;0.60;;
28483;SDS011;15704;48.834;8.736;2024-02-26T10:13:54;0.60;;;0.60;;
28483;SDS011;15704;48.834;8.736;2024-02-26T10:16:21;0.70;;;0.70;;
28483;SDS011;15704;48.834;8.736;2024-02-26T10:18:49;0.95;;;0.68;;
28483;SDS011;15704;48.834;8.736;2024-02-26T10:21:28;0.50;;;0.50;;
28483;SDS011;15704;48.834;8.736;2024-02-26T10:23:55;0.73;;;0.60;;
28483;SDS011;15704;48.834;8.736;2024-02-26T10:26:22;0.70;;;0.70;;
28483;SDS011;15704;48.834;8.736;2024-02-26T10:28:48;0.50;;;0.50;;
28483;SDS011;15704;48.834;8.736;2024-02-26T10:31:20;0.82;;;0.70;;
28483;SDS011;15704;48.834;8.736;2024-02-26T10:33:48;0.60;;;0.60;;
28483;SDS011;15704;48.834;8.736;2024-02-26T10:36:15;0.50;;;0.50;;
28483;SDS011;15704;48.834;8.736;2024-02-26T10:38:43;0.95;;;0.75;;
28483;SDS011;15704;48.834;8.736;2024-02-26T10:41:12;0.65;;;0.65;;
28483;SDS011;15704;48.834;8.736;2024-02-26T10:43:42;0.60;;;0.60;;
28483;SDS011;15704;48.834;8.736;2024-02-26T10:46:10;0.75;;;0.75;;
28483;SDS011;15704;48.834;8.736;2024-02-26T10:48:37;0.63;;;0.63;;
28483;SDS011;15704;48.834;8.736;2024-02-26T10:51:04;0.43;;;0.43;;
28483;SDS011;15704;48.834;8.736;2024-02-26T10:53:31;0.57;;;0.57;;
28483;SDS011;15704;48.834;8.736;2024-02-26T10:56:02;0.68;;;0.60;;
28483;SDS011;15704;48.834;8.736;2024-02-26T10:58:31;1.38;;;0.70;;
28483;SDS011;15704;48.834;8.736;2024-02-26T11:00:59;0.60;;;0.60;;
28483;SDS011;15704;48.834;8.736;2024-02-26T11:03:27;0.75;;;0.60;;
28483;SDS011;15704;48.834;8.736;2024-02-26T11:05:58;0.50;;;0.50;;
28483;SDS011;15704;48.834;8.736;2024-02-26T11:08:27;0.80;;;0.60;;
28483;SDS011;15704;48.834;8.736;2024-02-26T11:10:56;0.68;;;0.60;;
28483;SDS011;15704;48.834;8.736;2024-02-26T11:13:26;0.70;;;0.70;;
28483;SDS011;15704;48.834;8.736;2024-02-26T11:15:55;0.70;;;0.70;;
28483;SDS011;15704;48.834;8.736;2024-02-26T11:18:26;0.63;;;0.60;;
28483;SDS011;15704;48.834;8.736;2024-02-26T11:20:54;0.88;;;0.70;;
28483;SDS011;15704;48.834;8.736;2024-02-26T11:23:23;1.00;;;0.85;;
28483;SDS011;15704;48.834;8.736;2024-02-26T11:25:50;0.73;;;0.50;;
28483;SDS011;15704;48.834;8.736;2024-02-26T11:28:20;0.88;;;0.60;;
28483;SDS011;15704;48.834;8.736;2024-02-26T11:30:49;0.60;;;0.60;;
28483;SDS011;15704;48.834;8.736;2024-02-26T11:33:19;0.55;;;0.50;;
28483;SDS011;15704;48.834;8.736;2024-02-26T11:35:47;0.60;;;0.60;;
28483;SDS011;15704;48.834;8.736;2024-02-26T11:38:17;0.70;;;0.65;;
28483;SDS011;15704;48.834;8.736;2024-02-26T11:40:50;0.50;;;0.50;;
28483;SDS011;15704;48.834;8.736;2024-02-26T11:43:23;0.60;;;0.60;;
28483;SDS011;15704;48.834;8.736;2024-02-26T11:46:25;0.50;;;0.50;;
28483;SDS011;15704;48.834;8.736;2024-02-26T11:49:00;0.52;;;0.52;;
28483;SDS011;15704;48.834;8.736;2024-02-26T11:51:32;0.50;;;0.50;;
28483;SDS011;15704;48.834;8.736;2024-02-26T11:56:27;0.75;;;0.50;;
28483;SDS011;15704;48.834;8.736;2024-02-26T12:04:28;0.30;;;0.30;;
28483;SDS011;15704;48.834;8.736;2024-02-26T12:06:58;0.60;;;0.60;;
28483;SDS011;15704;48.834;8.736;2024-02-26T12:09:30;0.40;;;0.40;;
28483;SDS011;15704;48.834;8.736;2024-02-26T12:12:08;0.80;;;0.70;;
28483;SDS011;15704;48.834;8.736;2024-02-26T12:14:37;0.50;;;0.50;;
28483;SDS011;15704;48.834;8.736;2024-02-26T12:17:07;0.60;;;0.50;;
28483;SDS011;15704;48.834;8.736;2024-02-26T12:19:46;0.63;;;0.60;;
28483;SDS011;15704;48.834;8.736;2024-02-26T12:22:13;0.45;;;0.40;;
28483;SDS011;15704;48.834;8.736;2024-02-26T12:24:42;0.43;;;0.43;;
28483;SDS011;15704;48.834;8.736;2024-02-26T12:27:09;0.77;;;0.52;;
28483;SDS011;15704;48.834;8.736;2024-02-26T12:29:36;0.57;;;0.50;;
28483;SDS011;15704;48.834;8.736;2024-02-26T12:32:05;0.50;;;0.50;;
28483;SDS011;15704;48.834;8.736;2024-02-26T12:34:33;0.73;;;0.63;;
28483;SDS011;15704;48.834;8.736;2024-02-26T12:37:01;0.50;;;0.50;;
28483;SDS011;15704;48.834;8.736;2024-02-26T12:39:28;0.50;;;0.50;;
28483;SDS011;15704;48.834;8.736;2024-02-26T12:41:57;0.32;;;0.30;;
28483;SDS011;15704;48.834;8.736;2024-02-26T12:44:26;0.50;;;0.50;;
28483;SDS011;15704;48.834;8.736;2024-02-26T12:47:02;0.50;;;0.50;;
28483;SDS011;15704;48.834;8.736;2024-02-26T12:49:31;0.47;;;0.47;;
28483;SDS011;15704;48.834;8.736;2024-02-26T12:51:58;0.52;;;0.52;;
28483;SDS011;15704;48.834;8.736;2024-02-26T12:54:30;0.52;;;0.50;;
28483;SDS011;15704;48.834;8.736;2024-02-26T12:57:01;0.77;;;0.50;;
28483;SDS011;15704;48.834;8.736;2024-02-26T12:59:29;0.80;;;0.57;;
28483;SDS011;15704;48.834;8.736;2024-02-26T13:01:57;0.50;;;0.50;;
28483;SDS011;15704;48.834;8.736;2024-02-26T13:04:24;0.45;;;0.45;;
28483;SDS011;15704;48.834;8.736;2024-02-26T13:06:56;0.40;;;0.40;;
28483;SDS011;15704;48.834;8.736;2024-02-26T13:09:33;0.50;;;0.50;;
28483;SDS011;15704;48.834;8.736;2024-02-26T13:12:04;0.40;;;0.40;;
28483;SDS011;15704;48.834;8.736;2024-02-26T13:14:32;0.45;;;0.45;;
28483;SDS011;15704;48.834;8.736;2024-02-26T13:17:00;0.40;;;0.40;;
28483;SDS011;15704;48.834;8.736;2024-02-26T13:19:27;0.40;;;0.40;;
28483;SDS011;15704;48.834;8.736;2024-02-26T13:21:54;0.40;;;0.40;;
28483;SDS011;15704;48.834;8.736;2024-02-26T13:24:21;0.65;;;0.50;;
28483;SDS011;15704;48.834;8.736;2024-02-26T13:26:55;0.50;;;0.50;;
28483;SDS011;15704;48.834;8.736;2024-02-26T13:29:22;0.40;;;0.40;;
28483;SDS011;15704;48.834;8.736;2024-02-26T13:31:55;0.65;;;0.65;;
28483;SDS011;15704;48.834;8.736;2024-02-26T13:34:28;0.52;;;0.52;;
28483;SDS011;15704;48.834;8.736;2024-02-26T13:36:59;0.32;;;0.32;;
28483;SDS011;15704;48.834;8.736;2024-02-26T13:39:27;0.50;;;0.40;;
28483;SDS011;15704;48.834;8.736;2024-02-26T13:41:54;0.50;;;0.43;;
28483;SDS011;15704;48.834;8.736;2024-02-26T13:44:23;0.63;;;0.50;;
28483;SDS011;15704;48.834;8.736;2024-02-26T13:46:50;0.90;;;0.70;;
28483;SDS011;15704;48.834;8.736;2024-02-26T13:49:17;0.40;;;0.40;;
28483;SDS011;15704;48.834;8.736;2024-02-26T13:51:44;0.82;;;0.60;;
28483;SDS011;15704;48.834;8.736;2024-02-26T13:54:11;0.40;;;0.40;;
28483;SDS011;15704;48.834;8.736;2024-02-26T13:56:39;0.35;;;0.35;;
28483;SDS011;15704;48.834;8.736;2024-02-26T13:59:06;0.65;;;0.50;;
28483;SDS011;15704;48.834;8.736;2024-02-26T14:01:33;0.47;;;0.40;;
28483;SDS011;15704;48.834;8.736;2024-02-26T14:04:00;0.40;;;0.40;;
28483;SDS011;15704;48.834;8.736;2024-02-26T14:06:29;0.43;;;0.40;;
28483;SDS011;15704;48.834;8.736;2024-02-26T14:08:58;0.50;;;0.50;;
28483;SDS011;15704;48.834;8.736;2024-02-26T14:11:25;0.85;;;0.40;;
28483;SDS011;15704;48.834;8.736;2024-02-26T14:13:52;0.30;;;0.30;;
28483;SDS011;15704;48.834;8.736;2024-02-26T14:16:19;0.38;;;0.38;;
28483;SDS011;15704;48.834;8.736;2024-02-26T14:18:46;0.60;;;0.60;;
28483;SDS011;15704;48.834;8.736;2024-02-26T14:21:13;0.40;;;0.40;;
28483;SDS011;15704;48.834;8.736;2024-02-26T14:23:41;0.40;;;0.40;;
28483;SDS011;15704;48.834;8.736;2024-02-26T14:26:10;0.50;;;0.50;;
28483;SDS011;15704;48.834;8.736;2024-02-26T14:28:37;0.40;;;0.40;;
28483;SDS011;15704;48.834;8.736;2024-02-26T14:31:05;0.30;;;0.30;;
28483;SDS011;15704;48.834;8.736;2024-02-26T14:33:33;0.32;;;0.30;;
28483;SDS011;15704;48.834;8.736;2024-02-26T14:36:01;0.45;;;0.45;;
28483;SDS011;15704;48.834;8.736;2024-02-26T14:38:28;0.38;;;0.38;;
28483;SDS011;15704;48.834;8.736;2024-02-26T14:40:55;0.30;;;0.30;;
28483;SDS011;15704;48.834;8.736;2024-02-26T14:43:22;1.48;;;0.40;;
28483;SDS011;15704;48.834;8.736;2024-02-26T14:45:48;0.43;;;0.43;;
28483;SDS011;15704;48.834;8.736;2024-02-26T14:48:15;0.85;;;0.60;;
28483;SDS011;15704;48.834;8.736;2024-02-26T14:50:42;0.50;;;0.50;;
28483;SDS011;15704;48.834;8.736;2024-02-26T14:53:09;0.60;;;0.60;;
28483;SDS011;15704;48.834;8.736;2024-02-26T14:55:36;0.70;;;0.70;;
28483;SDS011;15704;48.834;8.736;2024-02-26T14:58:06;0.82;;;0.82;;
28483;SDS011;15704;48.834;8.736;2024-02-26T15:00:33;0.90;;;0.90;;